Republic, Ohio
Current Conditions -  °F | °C
As of 8:53 PM on Wednesday 26 Nov 2014 (Local Time) from KPCW Reporting Station
Overcast Overcast  
Wind Chill: 24°   Ceiling: 2200
Heat Index: 31°   Visibility: 10mi
Dew Point: 26°   Wind: 8mph
Humidity: 82%   Direction: 30°NNE
Pressure: 30.04"   Gusts: NA
Location:  41.12°N, 83.02°W
Report Text: KPCW 270153Z AUTO 03007KT 10SM OVC022 M01/M03 A3004 RMK AO2 T10051033 $
Loading
Personal Weather Stations






























Interactive Weather Map New forecast layout! Learn more

10-Day Weather Forecast

Advertisements
Track Severe Weather on mobile